Time;durP1;ratioP1;P1;durP2;ratioP2;P2;SDS_P1;SDS_P2;PMS_P1;PMS_P2;Temp;Humidity;BMP_temperature;BMP_pressure;BME280_temperature;BME280_humidity;BME280_pressure;Samples;Min_cycle;Max_cycle;Signal;HPM_P1;HPM_P2
2023/09/22 00:01:57;;;;;;;2.35;2.10;;;19.80;89.80;;;;;;4073174;29;20118;-57
2023/09/22 00:04:39;;;;;;;2.13;2.03;;;19.80;90.00;;;;;;4073137;29;20054;-57
2023/09/22 00:07:20;;;;;;;3.00;2.20;;;19.80;90.00;;;;;;4072726;29;20074;-59
2023/09/22 00:10:01;;;;;;;3.05;2.03;;;19.80;90.10;;;;;;4067466;29;20455;-60
2023/09/22 00:12:43;;;;;;;3.40;2.22;;;19.80;90.10;;;;;;4066945;29;20074;-60
2023/09/22 00:15:25;;;;;;;2.13;1.70;;;19.80;90.10;;;;;;4073996;29;20067;-60
2023/09/22 00:18:06;;;;;;;5.03;2.17;;;19.80;90.10;;;;;;4073415;29;20071;-60
2023/09/22 00:20:47;;;;;;;2.55;2.45;;;19.80;90.10;;;;;;4066252;29;20183;-60
2023/09/22 00:23:28;;;;;;;2.20;2.10;;;19.80;90.10;;;;;;4059852;29;20107;-60
2023/09/22 00:26:09;;;;;;;2.10;1.90;;;19.80;90.10;;;;;;4062259;29;20055;-61
2023/09/22 00:28:52;;;;;;;2.20;2.00;;;19.70;90.10;;;;;;4061014;29;20059;-61
2023/09/22 00:31:35;;;;;;;3.40;1.95;;;19.70;90.00;;;;;;4074264;29;20051;-57
2023/09/22 00:34:15;;;;;;;1.60;1.50;;;19.70;90.00;;;;;;4076625;29;20804;-57
2023/09/22 00:36:56;;;;;;;1.70;1.60;;;19.70;90.00;;;;;;4063774;29;20490;-57
2023/09/22 00:39:37;;;;;;;1.55;1.55;;;19.70;90.00;;;;;;4061531;29;20054;-57
2023/09/22 00:42:18;;;;;;;1.20;1.20;;;19.70;90.00;;;;;;4075129;29;20067;-58
2023/09/22 00:44:59;;;;;;;1.80;1.70;;;19.70;90.00;;;;;;4064338;29;20055;-57
2023/09/22 00:47:41;;;;;;;2.17;1.50;;;19.70;90.00;;;;;;4064546;29;20513;-58
2023/09/22 00:50:22;;;;;;;1.30;1.25;;;19.70;90.00;;;;;;4076325;29;20222;-58
2023/09/22 00:53:04;;;;;;;3.08;1.88;;;19.70;90.00;;;;;;4076399;29;20075;-58
2023/09/22 00:55:46;;;;;;;1.40;1.30;;;19.70;90.10;;;;;;4076009;29;20058;-61
2023/09/22 00:58:27;;;;;;;1.75;1.00;;;19.70;90.00;;;;;;4073891;29;20506;-61
2023/09/22 01:01:08;;;;;;;1.30;1.13;;;19.70;90.10;;;;;;4075263;29;20063;-61
2023/09/22 01:03:52;;;;;;;3.80;1.20;;;19.70;90.00;;;;;;4075191;29;20734;-61
2023/09/22 01:06:33;;;;;;;1.08;1.08;;;19.70;90.00;;;;;;4064292;29;20070;-61
2023/09/22 01:09:14;;;;;;;4.35;1.30;;;19.70;90.20;;;;;;4059259;29;20056;-61
2023/09/22 01:11:55;;;;;;;3.00;1.50;;;19.70;90.00;;;;;;4074778;29;20054;-58
2023/09/22 01:14:36;;;;;;;1.90;1.20;;;19.70;90.00;;;;;;4066839;29;20501;-57
2023/09/22 01:17:18;;;;;;;2.65;2.45;;;19.70;90.10;;;;;;4048988;29;20050;-59
2023/09/22 01:20:03;;;;;;;3.10;2.90;;;19.70;90.50;;;;;;4059610;29;20060;-58
2023/09/22 01:22:45;;;;;;;6.75;4.40;;;19.70;90.00;;;;;;4075351;29;20067;-58
2023/09/22 01:25:26;;;;;;;5.63;5.10;;;19.70;90.10;;;;;;4075310;29;20509;-58
2023/09/22 01:28:07;;;;;;;5.32;4.75;;;19.70;90.20;;;;;;4075444;29;20062;-58
2023/09/22 01:30:49;;;;;;;6.32;5.32;;;19.70;90.10;;;;;;4060963;29;20466;-57
2023/09/22 01:33:30;;;;;;;6.05;5.47;;;19.70;90.10;;;;;;4063309;29;20086;-59
2023/09/22 01:36:11;;;;;;;6.77;6.07;;;19.70;90.10;;;;;;4075106;29;20059;-58
2023/09/22 01:38:53;;;;;;;6.97;6.28;;;19.60;90.00;;;;;;4075142;29;20055;-58
2023/09/22 01:41:35;;;;;;;6.95;6.25;;;19.70;90.10;;;;;;4073352;29;20051;-58
2023/09/22 01:44:17;;;;;;;7.90;6.72;;;19.60;90.10;;;;;;4075302;29;20079;-58
2023/09/22 01:46:58;;;;;;;8.88;6.95;;;19.60;90.10;;;;;;4075738;29;20187;-58
2023/09/22 01:49:39;;;;;;;8.18;7.38;;;19.60;90.10;;;;;;4074537;29;20074;-57
2023/09/22 01:52:20;;;;;;;8.45;7.53;;;19.60;90.20;;;;;;4063033;29;20073;-57
2023/09/22 01:55:02;;;;;;;9.57;8.07;;;19.60;90.20;;;;;;4075108;29;20055;-56
2023/09/22 01:57:44;;;;;;;9.00;8.10;;;19.60;90.20;;;;;;4074486;29;20054;-57
2023/09/22 02:00:26;;;;;;;9.48;8.57;;;19.60;90.20;;;;;;4063248;29;20062;-57
2023/09/22 02:03:08;;;;;;;9.57;8.57;;;19.60;90.20;;;;;;4062660;29;20102;-57
2023/09/22 02:05:49;;;;;;;9.05;8.23;;;19.60;90.20;;;;;;4064974;29;20055;-57
2023/09/22 02:08:30;;;;;;;13.30;9.37;;;19.60;90.20;;;;;;4074143;29;20062;-57
2023/09/22 02:11:12;;;;;;;9.60;8.73;;;19.60;90.70;;;;;;4058324;29;20392;-58
2023/09/22 02:13:54;;;;;;;10.27;9.32;;;19.60;90.30;;;;;;4058765;29;20055;-57
2023/09/22 02:16:34;;;;;;;9.20;8.20;;;19.60;90.30;;;;;;4058458;29;20131;-56
2023/09/22 02:19:15;;;;;;;11.00;8.77;;;19.60;90.30;;;;;;4059442;29;20507;-57
2023/09/22 02:21:57;;;;;;;10.75;9.23;;;19.60;90.30;;;;;;4047661;29;20083;-57
2023/09/22 02:24:39;;;;;;;10.80;9.27;;;19.60;90.30;;;;;;4061301;29;20415;-57
2023/09/22 02:27:21;;;;;;;12.73;9.60;;;19.60;90.30;;;;;;4062958;29;20138;-57
2023/09/22 02:30:02;;;;;;;9.20;8.40;;;19.60;90.40;;;;;;4072573;29;20062;-57
2023/09/22 02:32:46;;;;;;;10.82;9.77;;;19.60;90.40;;;;;;4074660;29;20146;-57
2023/09/22 02:35:27;;;;;;;11.23;9.95;;;19.60;90.40;;;;;;4062619;29;20195;-57
2023/09/22 02:38:08;;;;;;;12.17;10.90;;;19.60;90.40;;;;;;4074775;29;20062;-57
2023/09/22 02:40:49;;;;;;;10.98;9.82;;;19.60;90.30;;;;;;4063393;29;20745;-57
2023/09/22 02:43:31;;;;;;;11.55;10.55;;;19.60;90.40;;;;;;4062206;29;20070;-57
2023/09/22 02:46:12;;;;;;;11.20;10.05;;;19.60;90.40;;;;;;4060740;29;20107;-58
2023/09/22 02:48:53;;;;;;;11.75;10.13;;;19.50;90.40;;;;;;4063010;29;20126;-58
2023/09/22 02:51:34;;;;;;;11.25;10.25;;;19.50;90.40;;;;;;4074230;29;20414;-58
2023/09/22 02:54:15;;;;;;;12.90;10.88;;;19.50;90.40;;;;;;4073590;29;20423;-57
2023/09/22 02:56:56;;;;;;;11.68;10.60;;;19.60;90.40;;;;;;4074003;29;20066;-58
2023/09/22 02:59:39;;;;;;;12.27;11.20;;;19.50;90.40;;;;;;4062639;29;20509;-57
2023/09/22 03:02:20;;;;;;;13.30;10.82;;;19.50;90.40;;;;;;4072678;29;20055;-57
2023/09/22 03:05:06;;;;;;;14.25;11.50;;;19.60;90.40;;;;;;4058672;29;20062;-58
2023/09/22 03:07:48;;;;;;;12.55;11.27;;;19.50;90.30;;;;;;4047005;29;20129;-57
2023/09/22 03:10:29;;;;;;;12.05;10.63;;;19.50;90.30;;;;;;4057189;29;20102;-57
2023/09/22 03:13:11;;;;;;;12.52;11.32;;;19.50;90.30;;;;;;4057700;29;20059;-57
2023/09/22 03:15:53;;;;;;;13.63;12.23;;;19.50;90.30;;;;;;4061775;29;20054;-61
2023/09/22 03:18:34;;;;;;;12.85;11.43;;;19.50;90.30;;;;;;4059396;29;20386;-61
2023/09/22 03:21:15;;;;;;;16.70;12.05;;;19.50;90.30;;;;;;4057082;29;20111;-61
2023/09/22 03:23:56;;;;;;;;;;;19.50;90.40;;;;;;4058358;29;20087;-61
2023/09/22 03:26:38;;;;;;;13.98;12.40;;;19.50;90.40;;;;;;4057577;29;19950;-61
2023/09/22 03:29:19;;;;;;;13.13;11.80;;;19.50;90.50;;;;;;4061667;29;20074;-58
2023/09/22 03:32:01;;;;;;;12.80;11.65;;;19.50;90.40;;;;;;4046461;29;20063;-57
2023/09/22 03:34:42;;;;;;;12.07;10.90;;;19.50;90.40;;;;;;4061143;29;20509;-57
2023/09/22 03:37:27;;;;;;;13.35;12.00;;;19.50;90.40;;;;;;4056016;29;20610;-57
2023/09/22 03:40:10;;;;;;;13.60;12.13;;;19.50;90.30;;;;;;4059684;29;20054;-57
2023/09/22 03:42:51;;;;;;;14.18;11.98;;;19.40;90.30;;;;;;4057599;29;20104;-57
2023/09/22 03:45:32;;;;;;;15.50;11.95;;;19.40;90.30;;;;;;4058372;29;20055;-56
2023/09/22 03:48:14;;;;;;;12.95;11.38;;;19.40;90.40;;;;;;4064147;29;20577;-56
2023/09/22 03:50:56;;;;;;;12.88;11.63;;;19.40;90.40;;;;;;4072762;29;20419;-57
2023/09/22 03:53:37;;;;;;;11.57;10.45;;;19.40;90.30;;;;;;4061652;29;20066;-59
2023/09/22 03:56:20;;;;;;;12.07;10.88;;;19.40;90.30;;;;;;4062010;29;20407;-58
2023/09/22 03:59:00;;;;;;;12.25;11.07;;;19.40;90.40;;;;;;4075921;29;20054;-57
2023/09/22 04:01:42;;;;;;;23.85;11.23;;;19.40;90.40;;;;;;4071198;29;20183;-58
2023/09/22 04:04:24;;;;;;;;;;;19.40;90.40;;;;;;4061437;29;20063;-57
2023/09/22 04:07:05;;;;;;;12.43;10.65;;;19.40;90.30;;;;;;4049469;29;19930;-57
2023/09/22 04:09:46;;;;;;;12.30;10.20;;;19.40;90.30;;;;;;4060762;29;20059;-56
2023/09/22 04:12:27;;;;;;;13.35;10.70;;;19.40;90.20;;;;;;4060491;29;20212;-57
2023/09/22 04:15:09;;;;;;;10.90;9.75;;;19.40;90.20;;;;;;4060813;29;20135;-57
2023/09/22 04:17:51;;;;;;;12.32;10.27;;;19.40;90.30;;;;;;4071774;29;20067;-56
2023/09/22 04:20:37;;;;;;;12.73;9.88;;;19.40;90.20;;;;;;4059873;29;20515;-57
2023/09/22 04:23:18;;;;;;;10.20;9.18;;;19.40;90.20;;;;;;4048705;29;20051;-56
2023/09/22 04:26:02;;;;;;;11.82;10.15;;;19.40;90.20;;;;;;4075478;29;20110;-57
2023/09/22 04:28:45;;;;;;;10.25;9.25;;;19.40;90.20;;;;;;4075103;29;20102;-57
2023/09/22 04:31:28;;;;;;;10.60;9.48;;;19.30;90.10;;;;;;4064513;29;20141;-52
2023/09/22 04:34:09;;;;;;;11.60;8.73;;;19.30;90.10;;;;;;4073285;29;20063;-55
2023/09/22 04:36:51;;;;;;;9.55;8.55;;;19.30;90.10;;;;;;4060509;29;20562;-53
2023/09/22 04:39:32;;;;;;;9.68;8.77;;;19.30;90.20;;;;;;4060253;29;20063;-60
2023/09/22 04:42:14;;;;;;;10.45;8.93;;;19.40;90.20;;;;;;4060087;29;20063;-60
2023/09/22 04:44:55;;;;;;;9.85;8.82;;;19.30;90.10;;;;;;4058912;29;20063;-60
2023/09/22 04:47:36;;;;;;;9.45;8.48;;;19.30;90.10;;;;;;4066263;29;20741;-60
2023/09/22 04:50:17;;;;;;;9.68;8.73;;;19.30;90.20;;;;;;4075347;29;20459;-60
2023/09/22 04:53:00;;;;;;;;;;;19.30;90.30;;;;;;4075989;29;20054;-60
2023/09/22 04:55:41;;;;;;;11.18;9.32;;;19.30;90.30;;;;;;4067978;29;19981;-60
2023/09/22 04:58:22;;;;;;;11.27;10.18;;;19.30;90.30;;;;;;4060649;29;20146;-60
2023/09/22 05:01:03;;;;;;;11.77;10.13;;;19.30;90.30;;;;;;4063708;29;20138;-60
2023/09/22 05:03:45;;;;;;;13.07;11.00;;;19.30;90.30;;;;;;4063576;29;20152;-59
2023/09/22 05:06:27;;;;;;;12.07;10.43;;;19.30;90.30;;;;;;4075377;29;20058;-60
2023/09/22 05:09:10;;;;;;;11.43;10.27;;;19.30;90.30;;;;;;4060329;29;20055;-59
2023/09/22 05:11:52;;;;;;;12.57;11.23;;;19.30;90.20;;;;;;4060212;29;20230;-57
2023/09/22 05:14:33;;;;;;;13.93;10.63;;;19.30;90.20;;;;;;4071854;29;20066;-59
2023/09/22 05:17:13;;;;;;;12.10;10.70;;;19.30;90.20;;;;;;4074269;29;20067;-60
2023/09/22 05:19:55;;;;;;;13.10;11.50;;;19.20;90.20;;;;;;4059384;29;20059;-60
2023/09/22 05:22:37;;;;;;;15.23;11.80;;;19.30;90.20;;;;;;4059753;29;20415;-58
2023/09/22 05:25:20;;;;;;;13.77;11.82;;;19.30;90.30;;;;;;4059666;29;20522;-60
2023/09/22 05:28:01;;;;;;;14.38;11.57;;;19.30;90.30;;;;;;4072005;29;20062;-52
2023/09/22 05:30:42;;;;;;;15.30;13.35;;;19.30;90.20;;;;;;4075025;29;20066;-56
2023/09/22 05:33:24;;;;;;;17.02;11.38;;;19.30;90.10;;;;;;4066191;29;20062;-54
2023/09/22 05:36:06;;;;;;;14.77;13.10;;;19.30;90.00;;;;;;4052431;29;20155;-54
2023/09/22 05:38:47;;;;;;;16.83;13.18;;;19.30;90.00;;;;;;4062874;29;20120;-54
2023/09/22 05:41:29;;;;;;;19.20;13.23;;;19.30;90.00;;;;;;4075151;29;20083;-59
2023/09/22 05:44:10;;;;;;;16.95;13.50;;;19.30;90.10;;;;;;4072802;29;20153;-59
2023/09/22 05:46:52;;;;;;;17.13;14.30;;;19.30;90.10;;;;;;4062357;29;20087;-59
2023/09/22 05:49:33;;;;;;;15.95;12.70;;;19.30;90.10;;;;;;4058553;29;20071;-60
2023/09/22 05:52:14;;;;;;;15.68;13.18;;;19.30;90.00;;;;;;4058755;29;20063;-58
2023/09/22 05:54:56;;;;;;;14.63;13.05;;;19.20;90.00;;;;;;4070571;29;20522;-60
2023/09/22 05:57:38;;;;;;;17.83;13.18;;;19.20;90.20;;;;;;4073686;29;20517;-45
2023/09/22 06:00:19;;;;;;;16.85;13.70;;;19.30;90.30;;;;;;4074193;29;20067;-40
2023/09/22 06:03:00;;;;;;;19.40;13.65;;;19.20;90.30;;;;;;4075646;29;20067;-42
2023/09/22 06:05:42;;;;;;;16.42;13.32;;;19.20;90.30;;;;;;4074469;29;20066;-42
2023/09/22 06:08:22;;;;;;;17.95;13.10;;;19.30;90.30;;;;;;4075415;29;20054;-44
2023/09/22 06:11:04;;;;;;;16.42;13.48;;;19.20;90.20;;;;;;4063529;29;20050;-46
2023/09/22 06:13:46;;;;;;;18.70;14.10;;;19.30;90.30;;;;;;4075238;29;20415;-42
2023/09/22 06:16:27;;;;;;;22.52;15.07;;;19.30;90.30;;;;;;4073423;29;20122;-47
2023/09/22 06:19:10;;;;;;;17.00;14.35;;;19.30;90.40;;;;;;4067252;29;20403;-47
2023/09/22 06:21:51;;;;;;;18.38;14.00;;;19.30;90.50;;;;;;4058823;29;20086;-45
2023/09/22 06:24:32;;;;;;;17.48;12.43;;;19.30;90.50;;;;;;4059060;29;20063;-45
2023/09/22 06:27:13;;;;;;;19.17;13.25;;;19.30;90.40;;;;;;4059849;29;20062;-49
2023/09/22 06:29:55;;;;;;;18.83;15.60;;;19.30;90.40;;;;;;4075204;29;20050;-48
2023/09/22 06:32:36;;;;;;;17.52;14.38;;;19.30;90.40;;;;;;4075172;29;20157;-45
2023/09/22 06:35:17;;;;;;;24.77;15.38;;;19.30;90.30;;;;;;4073467;29;20395;-45
2023/09/22 06:37:58;;;;;;;18.23;14.68;;;19.30;90.20;;;;;;4075161;29;20179;-45
2023/09/22 06:40:39;;;;;;;22.58;14.77;;;19.30;90.10;;;;;;4063072;29;20055;-44
2023/09/22 06:43:23;;;;;;;21.20;13.88;;;19.30;90.00;;;;;;4059656;29;20494;-45
2023/09/22 06:46:05;;;;;;;18.75;14.93;;;19.20;89.90;;;;;;4059739;29;20047;-46
2023/09/22 06:48:46;;;;;;;19.90;15.45;;;19.20;91.60;;;;;;4059377;29;20115;-44
2023/09/22 06:51:29;;;;;;;18.13;15.13;;;19.30;92.00;;;;;;4071571;29;20071;-45
2023/09/22 06:54:10;;;;;;;18.08;15.32;;;19.30;91.80;;;;;;4074205;29;20121;-48
2023/09/22 06:56:52;;;;;;;17.10;13.95;;;19.30;91.40;;;;;;4070295;29;20059;-45
2023/09/22 06:59:34;;;;;;;18.83;13.82;;;19.30;91.40;;;;;;4064487;29;20055;-45
2023/09/22 07:02:16;;;;;;;16.58;12.90;;;19.30;91.10;;;;;;4059111;29;20070;-48
2023/09/22 07:04:57;;;;;;;17.90;13.50;;;19.30;90.50;;;;;;4068867;29;20063;-46
2023/09/22 07:07:38;;;;;;;14.65;12.32;;;19.30;90.40;;;;;;4059250;29;20911;-49
2023/09/22 07:10:20;;;;;;;15.15;12.27;;;19.20;90.20;;;;;;4058699;29;20171;-48
2023/09/22 07:13:02;;;;;;;14.13;11.98;;;19.20;90.10;;;;;;4077046;29;20095;-46
2023/09/22 07:15:43;;;;;;;14.15;11.90;;;19.20;90.00;;;;;;4069446;29;20107;-49
2023/09/22 07:18:26;;;;;;;14.48;12.93;;;19.20;89.80;;;;;;4062528;29;20391;-51
2023/09/22 07:21:08;;;;;;;15.02;12.05;;;19.20;89.80;;;;;;4074396;29;20130;-46
2023/09/22 07:23:49;;;;;;;15.80;11.65;;;19.20;89.70;;;;;;4074227;29;20084;-45
2023/09/22 07:26:30;;;;;;;14.02;11.85;;;19.20;89.60;;;;;;4072954;29;20075;-44
2023/09/22 07:29:11;;;;;;;14.27;11.73;;;19.20;89.40;;;;;;4074215;29;20187;-48
2023/09/22 07:31:52;;;;;;;12.98;11.10;;;19.20;89.10;;;;;;4074261;29;20062;-47
2023/09/22 07:34:34;;;;;;;14.95;11.30;;;19.10;88.90;;;;;;4061466;29;20055;-47
2023/09/22 07:37:16;;;;;;;15.52;11.77;;;19.10;88.70;;;;;;4061649;29;20059;-45
2023/09/22 07:40:00;;;;;;;13.45;10.38;;;19.10;88.80;;;;;;4060885;29;20407;-45
2023/09/22 07:42:44;;;;;;;12.05;9.77;;;19.10;89.30;;;;;;4061222;29;20086;-45
2023/09/22 07:45:25;;;;;;;14.00;10.48;;;19.10;88.50;;;;;;4049345;29;20102;-45
2023/09/22 07:48:07;;;;;;;15.00;9.52;;;19.00;88.40;;;;;;4061179;29;20137;-44
2023/09/22 07:50:49;;;;;;;12.90;9.82;;;19.00;88.60;;;;;;4061231;29;20067;-45
2023/09/22 07:53:31;;;;;;;12.32;9.15;;;19.10;88.90;;;;;;4049356;29;20200;-46
2023/09/22 07:56:13;;;;;;;11.07;9.98;;;19.10;88.80;;;;;;4063512;29;20135;-44
2023/09/22 07:58:54;;;;;;;;;;;19.00;88.30;;;;;;4074987;29;20067;-50
2023/09/22 08:01:51;;;;;;;11.95;8.93;;;19.00;88.10;;;;;;4070775;29;19934;-46
2023/09/22 08:04:33;;;;;;;12.40;9.18;;;19.00;88.80;;;;;;4073736;29;20506;-47
2023/09/22 08:07:16;;;;;;;10.23;9.07;;;19.00;87.90;;;;;;4073749;29;20050;-46
2023/09/22 08:09:57;;;;;;;9.98;7.78;;;18.90;87.70;;;;;;4074673;29;20113;-46
2023/09/22 08:12:38;;;;;;;13.65;9.40;;;19.00;88.00;;;;;;4072195;29;20524;-47
2023/09/22 08:15:21;;;;;;;18.23;9.10;;;19.00;88.40;;;;;;4056285;29;20830;-45
2023/09/22 08:18:05;;;;;;;11.35;9.07;;;19.00;88.40;;;;;;4071898;29;20067;-42
2023/09/22 08:20:46;;;;;;;9.93;8.57;;;19.00;88.10;;;;;;4061323;29;20063;-45
2023/09/22 08:23:29;;;;;;;11.55;9.77;;;19.00;87.80;;;;;;4060978;29;20079;-48
2023/09/22 08:26:26;;;;;;;13.52;9.20;;;19.10;87.80;;;;;;4060022;29;20145;-45
2023/09/22 08:29:09;;;;;;;15.65;9.23;;;19.10;87.60;;;;;;4060614;29;20058;-43
2023/09/22 08:31:50;;;;;;;11.52;7.85;;;19.20;87.40;;;;;;4088750;29;20515;-46
2023/09/22 08:34:31;;;;;;;8.90;7.13;;;19.20;87.20;;;;;;4084404;29;20106;-47
2023/09/22 08:37:12;;;;;;;7.72;6.45;;;19.20;87.00;;;;;;4070870;29;20382;-45
2023/09/22 08:39:56;;;;;;;7.50;6.28;;;19.20;86.80;;;;;;4076000;29;20085;-44
2023/09/22 08:42:38;;;;;;;6.13;5.50;;;19.30;86.70;;;;;;4076293;29;20086;-44
2023/09/22 08:45:19;;;;;;;8.48;6.70;;;19.30;87.40;;;;;;4060356;29;20403;-46
2023/09/22 08:48:01;;;;;;;8.88;6.60;;;19.40;86.40;;;;;;4064487;29;20062;-44
2023/09/22 08:50:43;;;;;;;9.98;5.97;;;19.40;86.30;;;;;;4076011;29;20086;-44
2023/09/22 08:53:24;;;;;;;7.72;5.55;;;19.40;86.20;;;;;;4073706;29;20062;-45
2023/09/22 08:56:07;;;;;;;7.15;5.10;;;19.50;86.00;;;;;;4064410;29;20190;-44
2023/09/22 08:58:47;;;;;;;4.85;4.32;;;19.50;85.80;;;;;;4070939;29;20058;-46
2023/09/22 09:01:28;;;;;;;6.18;4.47;;;19.50;85.40;;;;;;4061071;29;20483;-44
2023/09/22 09:04:32;;;;;;;5.00;4.20;;;19.50;85.30;;;;;;4060791;29;20055;-40
2023/09/22 09:07:16;;;;;;;6.38;4.22;;;19.40;85.00;;;;;;4074449;29;20055;-39
2023/09/22 09:09:58;;;;;;;4.32;3.92;;;19.40;84.90;;;;;;4075613;29;20063;-40
2023/09/22 09:12:45;;;;;;;4.68;3.60;;;19.40;84.80;;;;;;4059996;29;20388;-40
2023/09/22 09:15:29;;;;;;;3.83;3.00;;;19.40;85.00;;;;;;4063096;29;20067;-41
2023/09/22 09:18:12;;;;;;;5.63;2.60;;;19.40;86.00;;;;;;4071144;29;20059;-41
2023/09/22 09:21:09;;;;;;;6.70;3.42;;;19.50;84.80;;;;;;4060401;29;20063;-42
2023/09/22 09:23:55;;;;;;;4.57;3.53;;;19.50;84.50;;;;;;4051896;29;20047;-40
2023/09/22 09:26:36;;;;;;;5.43;3.10;;;19.50;84.30;;;;;;4075718;29;20058;-41
2023/09/22 09:29:28;;;;;;;2.60;2.30;;;19.50;84.10;;;;;;4060238;29;20107;-40
2023/09/22 09:32:09;;;;;;;4.63;2.75;;;19.50;83.90;;;;;;4061786;29;20047;-41
2023/09/22 09:34:51;;;;;;;3.00;2.70;;;19.60;84.60;;;;;;4075679;29;20051;-43
2023/09/22 09:37:32;;;;;;;3.80;2.60;;;19.60;83.40;;;;;;4075628;29;20067;-43
2023/09/22 09:40:15;;;;;;;5.78;2.47;;;19.60;83.10;;;;;;4075213;29;20053;-40
2023/09/22 09:42:59;;;;;;;3.20;2.10;;;19.60;83.00;;;;;;4074950;29;20182;-44
2023/09/22 09:45:45;;;;;;;6.70;2.97;;;19.60;83.10;;;;;;4073890;29;20051;-42
2023/09/22 09:48:27;;;;;;;5.15;3.15;;;19.60;82.70;;;;;;4075544;29;20142;-40
2023/09/22 09:51:14;;;;;;;4.10;2.75;;;19.70;82.60;;;;;;4073834;29;20396;-40
2023/09/22 09:54:03;;;;;;;3.00;2.55;;;19.70;82.40;;;;;;4073880;29;20130;-43
2023/09/22 09:56:48;;;;;;;3.03;2.60;;;19.70;82.20;;;;;;4074110;29;20415;-42
2023/09/22 09:59:28;;;;;;;6.28;2.55;;;19.70;82.20;;;;;;4074836;29;20447;-40
2023/09/22 10:02:12;;;;;;;4.10;2.35;;;19.70;82.10;;;;;;4078215;29;20058;-41
2023/09/22 10:04:56;;;;;;;5.65;2.50;;;19.70;82.10;;;;;;4059694;29;20067;-41
2023/09/22 10:07:38;;;;;;;2.92;1.92;;;19.70;81.90;;;;;;4059081;29;20515;-41
2023/09/22 10:10:21;;;;;;;1.67;1.58;;;19.70;81.40;;;;;;4061994;29;20190;-42
2023/09/22 10:13:02;;;;;;;3.42;2.08;;;19.70;81.00;;;;;;4071872;29;20054;-42
2023/09/22 10:16:00;;;;;;;2.17;1.35;;;19.70;80.60;;;;;;4073422;29;20091;-43
2023/09/22 10:18:46;;;;;;;1.30;1.30;;;19.60;80.40;;;;;;4042474;29;20507;-41
2023/09/22 10:21:38;;;;;;;4.68;1.50;;;19.60;80.30;;;;;;4050818;29;20518;-44
2023/09/22 10:24:24;;;;;;;1.67;1.40;;;19.60;80.40;;;;;;4046576;29;20083;-43
2023/09/22 10:27:25;;;;;;;1.65;1.38;;;19.60;80.30;;;;;;4057696;29;20071;-44
2023/09/22 10:30:07;;;;;;;1.30;1.30;;;19.60;80.10;;;;;;4056075;29;20059;-43
2023/09/22 10:32:49;;;;;;;1.38;1.27;;;19.60;79.50;;;;;;4043248;29;20067;-45
2023/09/22 10:35:41;;;;;;;2.53;1.60;;;19.60;78.80;;;;;;4043410;29;20118;-42
2023/09/22 10:38:22;;;;;;;2.03;1.30;;;19.60;78.40;;;;;;4049654;29;20119;-42
2023/09/22 10:41:06;;;;;;;1.63;1.50;;;19.60;78.20;;;;;;4052870;29;20399;-45
2023/09/22 10:43:58;;;;;;;1.55;1.55;;;19.60;78.10;;;;;;4043240;29;20184;-42
2023/09/22 10:46:39;;;;;;;1.42;1.15;;;19.60;77.80;;;;;;4042390;29;20068;-42
2023/09/22 10:49:28;;;;;;;1.38;1.27;;;19.60;77.60;;;;;;4043644;29;20507;-41
2023/09/22 10:52:17;;;;;;;1.10;1.00;;;19.60;77.30;;;;;;4043416;29;20087;-43
2023/09/22 10:54:59;;;;;;;2.55;1.67;;;19.70;77.10;;;;;;4043606;29;20531;-42
2023/09/22 10:57:40;;;;;;;1.13;1.02;;;19.70;76.80;;;;;;4043433;29;20083;-41
2023/09/22 11:00:22;;;;;;;1.10;1.00;;;19.70;76.70;;;;;;4032252;29;20056;-42
2023/09/22 11:03:08;;;;;;;1.40;1.25;;;19.70;76.80;;;;;;4043320;29;20052;-41
2023/09/22 11:05:57;;;;;;;1.25;1.15;;;19.80;76.80;;;;;;4043564;29;20064;-41
2023/09/22 11:08:52;;;;;;;3.30;1.15;;;19.80;77.60;;;;;;4043011;29;20060;-42
2023/09/22 11:11:36;;;;;;;1.40;1.30;;;19.80;77.20;;;;;;4044242;29;20081;-41
2023/09/22 11:14:21;;;;;;;3.08;1.27;;;19.90;77.50;;;;;;4043280;29;20071;-42
2023/09/22 11:17:02;;;;;;;1.55;1.38;;;19.90;77.40;;;;;;4065933;29;20074;-42
2023/09/22 11:19:51;;;;;;;3.35;1.80;;;19.90;77.40;;;;;;4068920;29;20110;-44
2023/09/22 11:22:36;;;;;;;3.40;1.58;;;19.90;77.20;;;;;;4057973;29;20483;-41
2023/09/22 11:25:18;;;;;;;1.50;1.20;;;19.90;77.10;;;;;;4058165;29;20624;-43
2023/09/22 11:27:59;;;;;;;2.38;1.65;;;19.90;76.80;;;;;;4058269;29;20068;-48
2023/09/22 11:30:40;;;;;;;2.22;1.45;;;19.90;76.80;;;;;;4070445;29;20533;-42
2023/09/22 11:33:21;;;;;;;2.00;1.30;;;19.90;76.70;;;;;;4068677;29;20423;-43
2023/09/22 11:36:03;;;;;;;1.30;1.20;;;19.90;76.70;;;;;;4057666;29;20059;-40
2023/09/22 11:38:54;;;;;;;3.65;1.48;;;19.90;77.00;;;;;;4059019;29;20114;-40
2023/09/22 11:41:36;;;;;;;1.10;1.10;;;19.90;77.10;;;;;;4069366;29;23551;-40
2023/09/22 11:44:17;;;;;;;1.42;1.20;;;19.80;77.00;;;;;;4065042;29;20046;-40
2023/09/22 11:46:59;;;;;;;1.25;1.25;;;19.80;76.70;;;;;;4073720;29;20058;-40
2023/09/22 11:49:40;;;;;;;1.40;1.20;;;19.80;76.20;;;;;;4064119;29;20063;-42
2023/09/22 11:52:29;;;;;;;1.15;1.08;;;19.80;76.20;;;;;;4061471;29;20107;-40
2023/09/22 11:55:10;;;;;;;0.93;0.90;;;19.80;76.10;;;;;;4072834;29;20054;-39
2023/09/22 11:57:53;;;;;;;1.10;1.10;;;19.80;75.60;;;;;;4061904;29;20078;-41
2023/09/22 12:00:34;;;;;;;1.13;1.13;;;19.80;75.60;;;;;;4072026;29;20054;-40
2023/09/22 12:03:15;;;;;;;1.30;1.30;;;19.80;75.50;;;;;;4073964;29;20055;-39
2023/09/22 12:05:56;;;;;;;1.65;1.25;;;19.70;75.30;;;;;;4073652;29;20062;-39
2023/09/22 12:08:38;;;;;;;2.85;1.27;;;19.80;75.20;;;;;;4068252;29;20079;-40
2023/09/22 12:11:21;;;;;;;2.05;1.20;;;19.80;75.10;;;;;;4073230;29;20055;-39
2023/09/22 12:14:04;;;;;;;1.73;1.42;;;19.70;75.00;;;;;;4073557;29;20066;-39
2023/09/22 12:16:45;;;;;;;2.25;1.52;;;19.70;75.00;;;;;;4073186;29;20054;-40
2023/09/22 12:19:26;;;;;;;5.93;2.03;;;19.70;75.00;;;;;;4072273;29;20060;-40
2023/09/22 12:22:07;;;;;;;1.40;1.30;;;19.70;74.90;;;;;;4064425;29;20059;-40
2023/09/22 12:24:48;;;;;;;1.67;1.48;;;19.70;75.00;;;;;;4076832;29;20067;-41
2023/09/22 12:27:29;;;;;;;1.00;1.00;;;19.70;75.00;;;;;;4072885;29;20067;-40
2023/09/22 12:30:12;;;;;;;1.70;1.60;;;19.60;75.00;;;;;;4060623;29;20179;-40
2023/09/22 12:32:53;;;;;;;1.10;1.10;;;19.60;75.10;;;;;;4059294;29;20199;-40
2023/09/22 12:35:34;;;;;;;1.27;1.27;;;19.60;75.10;;;;;;4071043;29;20106;-41
2023/09/22 12:38:15;;;;;;;1.52;1.50;;;19.60;75.10;;;;;;4061735;29;20184;-43
2023/09/22 12:40:57;;;;;;;1.42;1.33;;;19.60;75.00;;;;;;4059671;29;20415;-43
2023/09/22 12:43:38;;;;;;;;;;;19.60;75.00;;;;;;4066152;29;20063;-41
2023/09/22 12:46:20;;;;;;;1.33;1.23;;;19.60;75.00;;;;;;4076024;29;19929;-42
2023/09/22 12:49:01;;;;;;;1.52;1.10;;;19.60;74.80;;;;;;4076304;29;20059;-40
2023/09/22 12:51:41;;;;;;;1.88;1.02;;;19.50;74.80;;;;;;4076499;29;20058;-40
2023/09/22 12:54:23;;;;;;;1.20;1.20;;;19.50;74.80;;;;;;4075225;29;20070;-41
2023/09/22 12:57:04;;;;;;;1.98;1.13;;;19.50;75.80;;;;;;4074022;29;20078;-42
2023/09/22 12:59:45;;;;;;;1.27;1.17;;;19.50;75.00;;;;;;4064169;29;20062;-40
2023/09/22 13:02:27;;;;;;;1.10;1.10;;;19.50;75.00;;;;;;4076275;29;20129;-40
2023/09/22 13:05:11;;;;;;;1.65;1.30;;;19.50;75.30;;;;;;4076063;29;20054;-42
2023/09/22 13:07:52;;;;;;;1.50;1.40;;;19.50;75.50;;;;;;4074574;29;20059;-44
2023/09/22 13:10:33;;;;;;;;;;;19.50;75.50;;;;;;4076316;29;20050;-40
2023/09/22 13:13:15;;;;;;;0.95;0.95;;;19.50;75.60;;;;;;4071559;29;20286;-40
2023/09/22 13:15:56;;;;;;;1.25;1.17;;;19.50;75.50;;;;;;4062727;29;20066;-42
2023/09/22 13:18:38;;;;;;;;;;;19.50;75.70;;;;;;4075645;29;20195;-41
2023/09/22 13:21:19;;;;;;;1.55;1.30;;;19.50;75.80;;;;;;4075494;29;19977;-41
2023/09/22 13:24:00;;;;;;;1.95;1.10;;;19.50;75.90;;;;;;4072884;29;20051;-42
2023/09/22 13:26:41;;;;;;;1.48;1.48;;;19.50;76.00;;;;;;4071742;29;20062;-42
2023/09/22 13:29:22;;;;;;;2.90;1.23;;;19.40;76.00;;;;;;4047436;29;20432;-43
2023/09/22 13:32:04;;;;;;;1.63;1.20;;;19.40;76.00;;;;;;4070238;29;20059;-41
2023/09/22 13:34:47;;;;;;;1.38;1.27;;;19.40;75.90;;;;;;4065658;29;20203;-40
2023/09/22 13:37:27;;;;;;;1.95;1.20;;;19.40;75.90;;;;;;4060058;29;20055;-40
2023/09/22 13:40:11;;;;;;;;;;;19.40;75.90;;;;;;4067035;29;20062;-41
2023/09/22 13:42:52;;;;;;;1.55;1.30;;;19.40;75.90;;;;;;4062735;29;20310;-43
2023/09/22 13:45:35;;;;;;;2.72;1.30;;;19.40;76.00;;;;;;4074455;29;20195;-41
2023/09/22 13:48:16;;;;;;;0.93;0.93;;;19.40;76.00;;;;;;4074433;29;20190;-41
2023/09/22 13:50:59;;;;;;;0.98;0.98;;;19.40;76.20;;;;;;4073109;29;20069;-42
2023/09/22 13:53:40;;;;;;;2.15;1.02;;;19.30;76.20;;;;;;4074407;29;20082;-41
2023/09/22 13:56:22;;;;;;;;;;;19.30;76.30;;;;;;4074775;29;20047;-41
2023/09/22 13:59:04;;;;;;;2.28;1.10;;;19.30;76.30;;;;;;4074545;29;19933;-41
2023/09/22 14:01:45;;;;;;;1.20;1.20;;;19.30;76.40;;;;;;4058395;29;20431;-41